Time;durP1;ratioP1;P1;durP2;ratioP2;P2;SDS_P1;SDS_P2;PMS_P1;PMS_P2;Temp;Humidity;BMP_temperature;BMP_pressure;BME280_temperature;BME280_humidity;BME280_pressure;Samples;Min_cycle;Max_cycle;Signal;HPM_P1;HPM_P2
2022/10/01 00:00:25;;;;;;;5.35;3.25;;;10.80;99.90;;;;;;5057107;28;20036;-82
2022/10/01 00:02:53;;;;;;;7.00;3.50;;;10.80;99.90;;;;;;5062762;28;20035;-82
2022/10/01 00:05:19;;;;;;;8.45;4.28;;;10.80;99.90;;;;;;5063161;28;20032;-82
2022/10/01 00:07:45;;;;;;;6.15;3.80;;;10.80;99.90;;;;;;5057110;28;20055;-82
2022/10/01 00:10:13;;;;;;;6.20;3.50;;;10.70;99.90;;;;;;5053983;28;20040;-82
2022/10/01 00:12:45;;;;;;;7.70;3.92;;;10.70;99.90;;;;;;5058998;28;20056;-82
2022/10/01 00:15:12;;;;;;;5.82;3.28;;;10.70;99.90;;;;;;5058521;28;20051;-82
2022/10/01 00:17:38;;;;;;;8.23;4.38;;;10.70;99.90;;;;;;5056481;28;20036;-83
2022/10/01 00:20:05;;;;;;;5.13;3.60;;;10.70;99.90;;;;;;5059901;28;20032;-83
2022/10/01 00:22:32;;;;;;;6.10;3.45;;;10.70;99.90;;;;;;5060788;28;20662;-83
2022/10/01 00:24:58;;;;;;;5.63;3.80;;;11.60;99.90;;;;;;5070558;28;20398;-83
2022/10/01 00:27:25;;;;;;;7.00;3.70;;;10.60;99.90;;;;;;5078151;28;20071;-82
2022/10/01 00:29:51;;;;;;;6.10;4.22;;;10.70;99.90;;;;;;5058680;28;20046;-82
2022/10/01 00:32:17;;;;;;;7.03;4.13;;;10.60;99.90;;;;;;5054590;28;20040;-83
2022/10/01 00:34:42;;;;;;;8.60;4.25;;;10.60;99.90;;;;;;5059918;28;20036;-82
2022/10/01 00:37:09;;;;;;;8.10;4.80;;;10.70;99.90;;;;;;5062549;28;20159;-83
2022/10/01 00:39:35;;;;;;;6.35;4.15;;;10.60;99.90;;;;;;5066271;28;20432;-83
2022/10/01 00:42:12;;;;;;;6.07;4.15;;;10.60;99.90;;;;;;5054761;28;20043;-82
2022/10/01 00:44:37;;;;;;;;;;;10.60;99.90;;;;;;5074561;28;20047;-82
2022/10/01 00:47:12;;;;;;;5.97;3.87;;;10.60;99.90;;;;;;5075439;28;19923;-83
2022/10/01 00:49:39;;;;;;;5.78;3.80;;;10.60;99.90;;;;;;5071096;28;20036;-83
2022/10/01 00:52:12;;;;;;;6.10;3.80;;;10.60;99.90;;;;;;5043855;28;20477;-83
2022/10/01 00:55:02;;;;;;;8.65;3.75;;;10.60;99.90;;;;;;5074589;28;20406;-83
2022/10/01 00:57:28;;;;;;;7.65;4.07;;;10.60;99.90;;;;;;5095772;28;20546;-83
2022/10/01 00:59:56;;;;;;;5.75;3.50;;;10.60;99.90;;;;;;5081237;28;20048;-83
2022/10/01 01:02:22;;;;;;;5.60;3.28;;;10.50;99.90;;;;;;5086067;28;20036;-83
2022/10/01 01:04:48;;;;;;;5.68;3.22;;;10.50;99.90;;;;;;5074493;28;20058;-83
2022/10/01 01:07:14;;;;;;;5.88;3.50;;;10.60;99.90;;;;;;5073913;28;20495;-83
2022/10/01 01:09:47;;;;;;;11.30;3.40;;;10.50;99.90;;;;;;5074699;28;20055;-83
2022/10/01 01:12:40;;;;;;;6.93;3.70;;;10.50;99.90;;;;;;5064526;28;20109;-83
2022/10/01 01:15:24;;;;;;;5.35;3.25;;;10.50;99.90;;;;;;5098092;28;20071;-83
2022/10/01 01:18:16;;;;;;;7.22;3.33;;;10.70;99.90;;;;;;5058390;28;20482;-83
2022/10/01 01:20:44;;;;;;;5.85;3.63;;;10.60;99.90;;;;;;5082019;28;20214;-83
2022/10/01 01:23:16;;;;;;;7.03;4.00;;;10.50;99.90;;;;;;5075630;28;20059;-83
2022/10/01 01:25:56;;;;;;;5.85;3.47;;;10.50;99.90;;;;;;5075002;28;20043;-83
2022/10/01 01:28:31;;;;;;;5.45;3.33;;;10.50;99.90;;;;;;5076237;28;20480;-83
2022/10/01 01:31:06;;;;;;;6.18;3.35;;;10.50;99.90;;;;;;5078226;28;20415;-83
2022/10/01 01:33:36;;;;;;;9.48;3.75;;;10.50;99.90;;;;;;5074995;28;20039;-83
2022/10/01 01:36:11;;;;;;;8.40;3.42;;;10.50;99.90;;;;;;5055838;28;20040;-83
2022/10/01 01:38:50;;;;;;;6.05;3.38;;;10.50;99.90;;;;;;5071151;28;20029;-83
2022/10/01 01:41:19;;;;;;;5.93;3.20;;;10.50;99.90;;;;;;5071518;28;20089;-84
2022/10/01 01:43:48;;;;;;;5.15;3.42;;;10.40;99.90;;;;;;5075208;28;20039;-85
2022/10/01 01:46:17;;;;;;;5.53;3.08;;;10.50;99.90;;;;;;5045872;28;20497;-84
2022/10/01 01:48:47;;;;;;;4.95;3.13;;;10.40;99.90;;;;;;5054803;28;20493;-84
2022/10/01 01:51:49;;;;;;;5.78;3.10;;;10.50;99.90;;;;;;5056711;28;20089;-84
2022/10/01 01:54:16;;;;;;;4.10;2.60;;;10.50;99.90;;;;;;5101710;28;20052;-84
2022/10/01 01:56:42;;;;;;;6.10;2.90;;;10.50;99.90;;;;;;5062399;28;20044;-84
2022/10/01 01:59:08;;;;;;;4.68;2.60;;;10.50;99.90;;;;;;5081209;28;20032;-84
2022/10/01 02:01:39;;;;;;;5.32;2.80;;;10.50;99.90;;;;;;5037029;28;20028;-84
2022/10/01 02:04:22;;;;;;;5.07;2.85;;;10.50;99.90;;;;;;5077621;28;20032;-85
2022/10/01 02:07:14;;;;;;;5.03;2.67;;;10.50;99.90;;;;;;5075295;28;20032;-84
2022/10/01 02:09:51;;;;;;;4.35;2.88;;;10.50;99.90;;;;;;5074353;28;20051;-84
2022/10/01 02:12:52;;;;;;;4.80;2.80;;;10.50;99.90;;;;;;5070193;28;20117;-84
2022/10/01 02:15:21;;;;;;;4.45;2.78;;;10.50;99.90;;;;;;5045758;28;20044;-82
2022/10/01 02:18:10;;;;;;;5.05;2.83;;;10.50;99.90;;;;;;5067215;28;20036;-82
2022/10/01 02:20:45;;;;;;;3.90;2.40;;;10.50;99.90;;;;;;5056399;28;20043;-82
2022/10/01 02:23:16;;;;;;;4.32;2.83;;;10.60;99.90;;;;;;5057141;28;20043;-82
2022/10/01 02:25:47;;;;;;;4.88;2.58;;;10.60;99.90;;;;;;5081725;28;20057;-82
2022/10/01 02:28:16;;;;;;;4.82;2.83;;;10.60;99.90;;;;;;5070045;28;20032;-82
2022/10/01 02:30:45;;;;;;;3.35;2.13;;;10.60;99.90;;;;;;5068712;28;20044;-83
2022/10/01 02:33:14;;;;;;;3.92;2.35;;;10.60;99.90;;;;;;5083066;28;20037;-83
2022/10/01 02:35:44;;;;;;;4.65;2.67;;;10.60;99.90;;;;;;5085579;28;20036;-83
2022/10/01 02:38:11;;;;;;;3.85;2.38;;;10.60;99.90;;;;;;5063945;28;20040;-83
2022/10/01 02:40:41;;;;;;;4.25;2.30;;;10.60;99.90;;;;;;5068909;28;20037;-83
2022/10/01 02:43:13;;;;;;;4.15;2.30;;;10.60;99.90;;;;;;5072563;28;20042;-83
2022/10/01 02:45:42;;;;;;;3.88;2.17;;;10.70;99.90;;;;;;5086018;28;20166;-83
2022/10/01 02:48:10;;;;;;;4.18;2.15;;;10.70;99.90;;;;;;5099617;28;20113;-82
2022/10/01 02:51:06;;;;;;;3.45;2.10;;;10.70;99.90;;;;;;5081430;28;20036;-82
2022/10/01 02:53:43;;;;;;;4.25;1.88;;;10.70;99.90;;;;;;5056825;28;20133;-82
2022/10/01 02:56:10;;;;;;;2.90;1.90;;;10.70;99.90;;;;;;5069292;28;20051;-82
2022/10/01 02:58:36;;;;;;;3.35;2.17;;;10.70;99.90;;;;;;5055324;28;20491;-82
2022/10/01 03:01:02;;;;;;;2.70;1.60;;;10.70;99.90;;;;;;5044981;28;20079;-82
2022/10/01 03:03:30;;;;;;;4.10;2.22;;;10.70;99.90;;;;;;5052592;28;20119;-83
2022/10/01 03:05:55;;;;;;;3.55;2.55;;;10.70;99.90;;;;;;5056270;28;20040;-83
2022/10/01 03:08:22;;;;;;;4.05;1.90;;;10.80;99.90;;;;;;5066236;28;20047;-83
2022/10/01 03:10:49;;;;;;;3.10;2.00;;;10.80;99.90;;;;;;5047618;28;20047;-83
2022/10/01 03:13:16;;;;;;;3.70;1.95;;;10.80;99.90;;;;;;5042085;28;20058;-83
2022/10/01 03:15:45;;;;;;;2.88;1.70;;;10.80;99.90;;;;;;5074023;28;20040;-83
2022/10/01 03:18:11;;;;;;;2.38;1.60;;;10.80;99.90;;;;;;5070944;28;20058;-83
2022/10/01 03:20:37;;;;;;;2.17;1.50;;;11.10;99.90;;;;;;5057234;28;20032;-83
2022/10/01 03:23:02;;;;;;;2.58;1.67;;;11.20;99.90;;;;;;5055140;28;20393;-83
2022/10/01 03:25:28;;;;;;;2.50;1.42;;;10.90;99.90;;;;;;5065345;28;20117;-83
2022/10/01 03:27:54;;;;;;;2.50;1.48;;;10.90;99.90;;;;;;5061810;28;20504;-83
2022/10/01 03:30:20;;;;;;;1.90;1.38;;;10.80;99.90;;;;;;5078218;28;20440;-84
2022/10/01 03:32:46;;;;;;;3.00;1.52;;;10.90;99.90;;;;;;5107467;28;20082;-84
2022/10/01 03:35:11;;;;;;;2.38;1.58;;;11.00;99.90;;;;;;5046036;28;20076;-83
2022/10/01 03:37:37;;;;;;;1.73;1.40;;;11.00;99.90;;;;;;5060040;28;20043;-84
2022/10/01 03:40:03;;;;;;;2.53;1.58;;;11.00;99.90;;;;;;5044250;28;20047;-84
2022/10/01 03:42:29;;;;;;;2.50;1.63;;;11.00;99.90;;;;;;5061768;28;20036;-84
2022/10/01 03:44:54;;;;;;;2.40;1.50;;;11.00;99.90;;;;;;5073561;28;20084;-83
2022/10/01 03:47:23;;;;;;;3.38;1.90;;;11.00;99.90;;;;;;5075146;28;20040;-84
2022/10/01 03:49:48;;;;;;;1.65;1.23;;;11.00;99.90;;;;;;5072644;28;20075;-83
2022/10/01 03:52:14;;;;;;;1.98;1.23;;;11.90;99.90;;;;;;5072749;28;20111;-83
2022/10/01 03:54:40;;;;;;;2.42;1.55;;;11.00;99.90;;;;;;5041040;28;20047;-83
2022/10/01 03:57:06;;;;;;;3.83;1.63;;;10.80;99.90;;;;;;5049809;28;20067;-83
2022/10/01 03:59:31;;;;;;;1.92;1.33;;;11.00;99.90;;;;;;5060938;28;20036;-83
2022/10/01 04:01:57;;;;;;;1.83;1.20;;;11.00;99.90;;;;;;5071543;28;20032;-83
2022/10/01 04:04:22;;;;;;;3.15;1.83;;;11.00;99.90;;;;;;5062682;28;20024;-83
2022/10/01 04:06:48;;;;;;;1.90;1.40;;;11.10;99.90;;;;;;5057941;28;20039;-83
2022/10/01 04:09:14;;;;;;;2.17;1.25;;;11.20;99.90;;;;;;5076914;28;20135;-83
2022/10/01 04:11:39;;;;;;;2.47;1.50;;;11.10;99.90;;;;;;5078963;28;20047;-84
2022/10/01 04:14:05;;;;;;;3.00;1.55;;;11.00;99.90;;;;;;5085347;28;20072;-84
2022/10/01 04:16:33;;;;;;;2.35;1.45;;;11.20;99.90;;;;;;5075908;28;20047;-84
2022/10/01 04:18:59;;;;;;;2.50;1.75;;;11.10;99.90;;;;;;5040923;28;20131;-85
2022/10/01 04:21:25;;;;;;;2.72;1.50;;;11.10;99.90;;;;;;5066490;28;20143;-84
2022/10/01 04:23:51;;;;;;;2.80;1.70;;;11.10;99.90;;;;;;5066491;28;20039;-84
2022/10/01 04:26:18;;;;;;;2.17;1.55;;;11.20;99.90;;;;;;5060258;28;20040;-83
2022/10/01 04:28:45;;;;;;;2.47;1.50;;;11.20;99.90;;;;;;5070618;28;20040;-82
2022/10/01 04:31:23;;;;;;;1.55;1.38;;;11.20;99.90;;;;;;5058444;28;20405;-82
2022/10/01 04:33:50;;;;;;;1.83;1.20;;;12.30;99.90;;;;;;5075781;28;20374;-82
2022/10/01 04:36:16;;;;;;;1.92;1.27;;;11.20;99.90;;;;;;5081169;28;20039;-82
2022/10/01 04:38:42;;;;;;;2.25;1.45;;;11.30;99.90;;;;;;5082604;28;20044;-82
2022/10/01 04:41:08;;;;;;;2.90;1.80;;;11.90;99.90;;;;;;5075836;28;20040;-82
2022/10/01 04:43:34;;;;;;;2.85;1.67;;;11.30;99.90;;;;;;5046103;28;20036;-82
2022/10/01 04:46:00;;;;;;;3.70;1.73;;;11.40;99.90;;;;;;5060711;28;20189;-82
2022/10/01 04:48:25;;;;;;;2.40;1.70;;;11.40;99.90;;;;;;5072666;28;20036;-82
2022/10/01 04:50:51;;;;;;;1.73;1.33;;;11.40;99.90;;;;;;5076070;28;20043;-82
2022/10/01 04:53:17;;;;;;;2.33;1.55;;;11.40;99.90;;;;;;5041037;28;20067;-82
2022/10/01 04:55:42;;;;;;;2.35;1.73;;;11.40;99.90;;;;;;5073187;28;20390;-82
2022/10/01 04:58:08;;;;;;;3.13;1.73;;;11.50;99.90;;;;;;5074954;28;20043;-82
2022/10/01 05:00:35;;;;;;;2.47;1.60;;;11.60;99.90;;;;;;5073840;28;20494;-83
2022/10/01 05:03:00;;;;;;;4.72;1.70;;;11.50;99.90;;;;;;5095816;28;20035;-83
2022/10/01 05:05:27;;;;;;;2.97;1.95;;;11.50;99.90;;;;;;5076969;28;20474;-82
2022/10/01 05:07:54;;;;;;;3.10;1.73;;;11.70;99.90;;;;;;5057661;28;20490;-82
2022/10/01 05:10:21;;;;;;;2.90;1.92;;;11.60;99.90;;;;;;5058762;28;20074;-83
2022/10/01 05:12:47;;;;;;;2.03;1.70;;;11.60;99.90;;;;;;5058002;28;20126;-83
2022/10/01 05:15:15;;;;;;;3.60;1.98;;;11.60;99.90;;;;;;5064928;28;20048;-83
2022/10/01 05:17:40;;;;;;;3.53;1.88;;;11.60;99.90;;;;;;5073189;28;20482;-83
2022/10/01 05:20:07;;;;;;;2.17;1.65;;;11.60;99.90;;;;;;5057110;28;20055;-83
2022/10/01 05:22:33;;;;;;;2.50;1.88;;;11.70;99.90;;;;;;5103456;28;20075;-83
2022/10/01 05:24:59;;;;;;;3.15;2.00;;;11.70;99.90;;;;;;5034468;28;20487;-83
2022/10/01 05:27:29;;;;;;;3.30;2.08;;;11.80;99.90;;;;;;5069627;28;20048;-83
2022/10/01 05:29:55;;;;;;;4.28;1.77;;;11.80;99.90;;;;;;5067815;28;20072;-82
2022/10/01 05:32:21;;;;;;;4.20;2.05;;;11.80;99.90;;;;;;5066922;28;20059;-81
2022/10/01 05:34:47;;;;;;;3.15;1.98;;;12.00;99.90;;;;;;5089899;28;20092;-79
2022/10/01 05:37:13;;;;;;;2.92;1.83;;;11.90;99.90;;;;;;5055232;28;20039;-80
2022/10/01 05:39:39;;;;;;;4.90;1.85;;;12.10;99.90;;;;;;5071256;28;20044;-80
2022/10/01 05:42:05;;;;;;;3.50;1.77;;;12.10;99.90;;;;;;5074050;28;20375;-80
2022/10/01 05:44:36;;;;;;;3.63;2.05;;;12.10;99.90;;;;;;5043543;28;20090;-80
2022/10/01 05:47:05;;;;;;;4.40;1.98;;;12.20;99.90;;;;;;5074818;28;20059;-80
2022/10/01 05:49:30;;;;;;;2.95;1.85;;;12.20;99.90;;;;;;5079862;28;20043;-82
2022/10/01 05:51:57;;;;;;;2.90;1.90;;;12.20;99.90;;;;;;5077116;28;20401;-81
2022/10/01 05:54:23;;;;;;;4.07;2.00;;;12.30;99.90;;;;;;5057521;28;20047;-81
2022/10/01 05:56:49;;;;;;;3.33;1.90;;;12.30;99.90;;;;;;5049269;28;20040;-81
2022/10/01 05:59:15;;;;;;;5.05;1.80;;;12.30;99.90;;;;;;5069966;28;20044;-81
2022/10/01 06:01:41;;;;;;;4.00;2.00;;;12.40;99.90;;;;;;5072664;28;20032;-81
2022/10/01 06:04:09;;;;;;;2.45;1.70;;;12.40;99.90;;;;;;5074868;28;20044;-81
2022/10/01 06:06:35;;;;;;;3.28;1.90;;;12.40;99.90;;;;;;5057185;28;20042;-81
2022/10/01 06:09:00;;;;;;;3.17;2.03;;;12.50;99.90;;;;;;5054704;28;20039;-82
2022/10/01 06:11:26;;;;;;;3.35;1.70;;;12.50;99.90;;;;;;5064304;28;20040;-83
2022/10/01 06:13:52;;;;;;;2.47;1.95;;;12.60;99.90;;;;;;5044455;28;20040;-83
2022/10/01 06:16:19;;;;;;;3.53;2.00;;;12.60;99.90;;;;;;5076605;28;20071;-83
2022/10/01 06:18:46;;;;;;;5.32;2.13;;;12.70;99.90;;;;;;5074047;28;20078;-83
2022/10/01 06:21:12;;;;;;;3.72;1.85;;;12.70;99.90;;;;;;5058978;28;20036;-83
2022/10/01 06:23:37;;;;;;;1.95;1.40;;;12.70;99.90;;;;;;5042896;28;20093;-82
2022/10/01 06:26:04;;;;;;;2.83;1.27;;;12.70;99.90;;;;;;5076160;28;20739;-82
2022/10/01 06:28:32;;;;;;;4.35;1.85;;;12.70;99.90;;;;;;5084388;28;20075;-81
2022/10/01 06:31:00;;;;;;;3.53;1.55;;;12.70;99.90;;;;;;5075652;28;20036;-81
2022/10/01 06:33:26;;;;;;;2.28;1.77;;;12.80;99.90;;;;;;5070688;28;20048;-81
2022/10/01 06:35:52;;;;;;;4.10;1.95;;;12.90;99.90;;;;;;5058246;28;20046;-81
2022/10/01 06:38:20;;;;;;;4.15;1.50;;;13.00;99.90;;;;;;5073952;28;20036;-81
2022/10/01 06:41:00;;;;;;;5.85;1.40;;;13.20;99.90;;;;;;5073341;28;20039;-81
2022/10/01 06:43:28;;;;;;;2.67;2.20;;;13.30;99.90;;;;;;5057762;28;20036;-81
2022/10/01 06:45:55;;;;;;;2.30;1.23;;;13.30;99.90;;;;;;5095272;28;20071;-81
2022/10/01 06:48:21;;;;;;;2.63;1.58;;;13.30;99.90;;;;;;5058234;28;20039;-81
2022/10/01 06:50:48;;;;;;;4.50;1.48;;;13.20;99.90;;;;;;5073530;28;20089;-81
2022/10/01 06:53:16;;;;;;;3.58;1.30;;;13.20;99.90;;;;;;5070647;28;20032;-81
2022/10/01 06:55:43;;;;;;;3.00;0.93;;;13.20;99.90;;;;;;5057312;28;20032;-81
2022/10/01 06:58:14;;;;;;;2.22;1.00;;;13.10;99.90;;;;;;5052965;28;20044;-83
2022/10/01 07:00:41;;;;;;;2.05;0.80;;;13.00;99.90;;;;;;5073547;28;20079;-83
2022/10/01 07:03:18;;;;;;;2.55;0.80;;;12.90;99.90;;;;;;5076400;28;20063;-83
2022/10/01 07:05:45;;;;;;;5.38;1.02;;;12.90;99.90;;;;;;5076472;28;20044;-83
2022/10/01 07:08:11;;;;;;;3.03;0.85;;;12.80;99.90;;;;;;5073124;28;20043;-83
2022/10/01 07:10:38;;;;;;;1.65;0.88;;;12.80;99.90;;;;;;5099102;28;20493;-82
2022/10/01 07:13:19;;;;;;;1.83;1.05;;;12.70;99.90;;;;;;5064834;28;20064;-81
2022/10/01 07:15:45;;;;;;;3.08;1.10;;;12.60;99.90;;;;;;5071767;28;20040;-81
2022/10/01 07:18:12;;;;;;;3.95;0.93;;;12.70;99.90;;;;;;5067977;28;20080;-79
2022/10/01 07:20:39;;;;;;;5.07;1.13;;;13.00;99.90;;;;;;5055891;28;20475;-79
2022/10/01 07:23:10;;;;;;;2.63;0.90;;;14.20;99.90;;;;;;5095711;28;20040;-79
2022/10/01 07:25:37;;;;;;;2.03;0.85;;;15.70;99.90;;;;;;5071987;28;20036;-79
2022/10/01 07:28:05;;;;;;;3.17;1.05;;;18.10;99.90;;;;;;5071824;28;20549;-79
2022/10/01 07:30:31;;;;;;;1.60;0.90;;;19.10;99.90;;;;;;5073786;28;20044;-81
2022/10/01 07:32:57;;;;;;;4.32;0.93;;;19.60;99.90;;;;;;5051671;28;20036;-81
2022/10/01 07:35:23;;;;;;;3.08;1.17;;;19.80;99.90;;;;;;5049664;28;20208;-81
2022/10/01 07:37:50;;;;;;;2.05;0.93;;;20.20;99.90;;;;;;5100730;28;20120;-81
2022/10/01 07:40:17;;;;;;;3.20;0.90;;;20.50;99.90;;;;;;5073909;28;20516;-82
2022/10/01 07:42:50;;;;;;;4.65;1.55;;;20.70;99.90;;;;;;5074225;28;20035;-81
2022/10/01 07:45:16;;;;;;;3.03;0.80;;;21.30;99.90;;;;;;5070638;28;20043;-81
2022/10/01 07:47:42;;;;;;;2.88;0.82;;;21.10;99.90;;;;;;5067903;28;20036;-80
2022/10/01 07:50:07;;;;;;;3.35;0.80;;;21.00;99.90;;;;;;5064059;28;20154;-80
2022/10/01 07:52:33;;;;;;;1.35;0.65;;;21.70;99.90;;;;;;5069644;28;20420;-80
2022/10/01 07:54:59;;;;;;;1.42;0.57;;;22.50;99.90;;;;;;5069075;28;20047;-80
2022/10/01 07:57:24;;;;;;;3.63;0.98;;;23.30;99.90;;;;;;5051066;28;20486;-80
2022/10/01 07:59:50;;;;;;;4.45;0.98;;;23.50;99.90;;;;;;5070837;28;20066;-80
2022/10/01 08:02:19;;;;;;;1.25;1.13;;;24.00;99.90;;;;;;5052813;28;20036;-80
2022/10/01 08:07:32;;;;;;;2.67;1.00;;;24.70;99.30;;;;;;5088306;28;20047;-81
2022/10/01 08:09:57;;;;;;;5.47;1.17;;;25.10;99.20;;;;;;5072198;28;20047;-81
2022/10/01 08:12:26;;;;;;;4.80;1.58;;;24.60;96.70;;;;;;5086358;28;20052;-82
2022/10/01 08:14:52;;;;;;;4.18;0.93;;;23.80;99.90;;;;;;5100965;28;20045;-82
2022/10/01 08:17:18;;;;;;;5.60;1.65;;;23.00;99.50;;;;;;5058913;28;20050;-82
2022/10/01 08:19:44;;;;;;;5.90;1.58;;;22.10;99.90;;;;;;5054956;28;20123;-81
2022/10/01 08:22:09;;;;;;;4.53;1.27;;;21.50;99.90;;;;;;5073527;28;20032;-81
2022/10/01 08:24:35;;;;;;;3.40;1.10;;;20.90;99.90;;;;;;5045352;28;20039;-81
2022/10/01 08:27:01;;;;;;;3.40;1.10;;;20.40;99.90;;;;;;5081440;23;20436;-81
2022/10/01 08:29:27;;;;;;;3.28;1.42;;;20.00;99.90;;;;;;5075882;28;20047;-82
2022/10/01 08:31:52;;;;;;;3.55;0.93;;;19.80;99.90;;;;;;5094138;28;20123;-82
2022/10/01 08:34:18;;;;;;;1.23;0.50;;;19.70;99.90;;;;;;5084390;28;20036;-82
2022/10/01 08:36:44;;;;;;;3.63;1.20;;;19.40;99.90;;;;;;5076915;28;20478;-82
2022/10/01 08:39:12;;;;;;;3.50;1.10;;;19.10;99.90;;;;;;5085592;28;20390;-82
2022/10/01 08:41:46;;;;;;;5.93;1.20;;;18.60;99.90;;;;;;5092128;28;20039;-82
2022/10/01 08:44:20;;;;;;;4.68;1.08;;;18.10;99.90;;;;;;5090918;28;20535;-82
2022/10/01 08:46:48;;;;;;;4.80;1.10;;;17.70;99.90;;;;;;5093198;28;20520;-81
2022/10/01 08:49:20;;;;;;;2.10;0.85;;;17.50;99.90;;;;;;5093456;28;20117;-81
2022/10/01 08:51:58;;;;;;;3.33;0.77;;;17.50;99.90;;;;;;5076958;28;20043;-82
2022/10/01 08:54:27;;;;;;;5.70;1.48;;;18.20;99.90;;;;;;5093551;28;20054;-82
2022/10/01 08:56:56;;;;;;;4.03;0.55;;;18.70;99.90;;;;;;5093432;28;20089;-82
2022/10/01 08:59:41;;;;;;;1.17;0.77;;;18.60;99.90;;;;;;5076877;28;20028;-81
2022/10/01 09:02:32;;;;;;;5.90;1.05;;;18.30;99.90;;;;;;5059756;28;20032;-81
2022/10/01 09:05:19;;;;;;;2.58;0.80;;;17.90;99.90;;;;;;5073862;28;20044;-81
2022/10/01 09:08:06;;;;;;;5.55;1.30;;;17.60;99.90;;;;;;5092997;28;20052;-81
2022/10/01 09:10:35;;;;;;;2.40;0.70;;;17.20;99.90;;;;;;5093787;28;20069;-81
2022/10/01 09:13:27;;;;;;;2.42;0.98;;;17.10;99.90;;;;;;5075198;28;20050;-81
2022/10/01 09:16:22;;;;;;;3.17;0.82;;;17.30;99.90;;;;;;5072194;28;20070;-81
2022/10/01 09:19:12;;;;;;;1.60;0.85;;;18.40;99.90;;;;;;5092907;28;20032;-81
2022/10/01 09:21:55;;;;;;;7.28;1.40;;;18.80;99.90;;;;;;5089499;28;20036;-81
2022/10/01 09:24:39;;;;;;;2.17;0.57;;;19.10;99.90;;;;;;5086777;28;20035;-80
2022/10/01 09:27:20;;;;;;;3.03;1.10;;;19.50;99.90;;;;;;5084038;28;20440;-82
2022/10/01 09:29:54;;;;;;;1.65;0.88;;;20.50;99.90;;;;;;5091344;28;20052;-82
2022/10/01 09:32:25;;;;;;;5.72;1.25;;;20.80;99.90;;;;;;5092011;28;20044;-82
2022/10/01 09:34:52;;;;;;;3.10;0.80;;;20.40;99.90;;;;;;5073788;28;20119;-81
2022/10/01 09:37:20;;;;;;;4.05;1.48;;;19.70;99.90;;;;;;5054547;28;20509;-82
2022/10/01 09:40:08;;;;;;;3.50;1.27;;;19.00;99.90;;;;;;5089502;28;20036;-82
2022/10/01 09:42:33;;;;;;;2.22;0.85;;;18.50;99.90;;;;;;5091554;28;20035;-82
2022/10/01 09:44:59;;;;;;;3.08;1.17;;;18.10;99.90;;;;;;5088458;28;20036;-81
2022/10/01 09:47:25;;;;;;;2.45;1.42;;;17.80;99.90;;;;;;5073792;28;20042;-80
2022/10/01 09:49:51;;;;;;;6.90;1.67;;;17.50;99.90;;;;;;5072787;28;20516;-80
2022/10/01 09:52:33;;;;;;;2.47;0.68;;;17.10;99.90;;;;;;5090714;28;20044;-80
2022/10/01 09:55:16;;;;;;;2.67;0.70;;;16.50;99.90;;;;;;5090701;28;20394;-80
2022/10/01 09:57:49;;;;;;;3.55;0.90;;;15.90;99.90;;;;;;5074899;28;20044;-80
2022/10/01 10:00:20;;;;;;;2.33;0.93;;;15.60;99.90;;;;;;5092551;28;20566;-81
2022/10/01 10:02:49;;;;;;;3.90;0.85;;;15.30;99.90;;;;;;5093108;28;20068;-81
2022/10/01 10:05:19;;;;;;;3.15;0.98;;;15.10;99.90;;;;;;5092272;28;20031;-81
2022/10/01 10:07:52;;;;;;;4.85;0.95;;;14.90;99.90;;;;;;5074283;28;20115;-81
2022/10/01 10:10:34;;;;;;;2.00;0.57;;;14.80;99.90;;;;;;5091297;28;20040;-80
2022/10/01 10:13:12;;;;;;;2.45;0.77;;;14.80;99.90;;;;;;5108832;28;20048;-81
2022/10/01 10:15:48;;;;;;;2.15;0.68;;;15.00;99.90;;;;;;5081201;28;20040;-81
2022/10/01 10:18:16;;;;;;;6.45;1.17;;;15.10;99.90;;;;;;5091309;28;20048;-82
2022/10/01 10:20:44;;;;;;;4.80;0.80;;;15.20;99.90;;;;;;5092959;28;20051;-82
2022/10/01 10:23:17;;;;;;;1.85;0.70;;;15.30;99.90;;;;;;5092399;28;20411;-82
2022/10/01 10:26:03;;;;;;;4.53;1.40;;;15.40;99.90;;;;;;5075966;28;20040;-82
2022/10/01 10:28:40;;;;;;;2.35;0.47;;;15.40;99.90;;;;;;5075745;28;20390;-82
2022/10/01 10:31:14;;;;;;;1.67;0.70;;;15.70;99.90;;;;;;5059989;28;20075;-82
2022/10/01 10:33:50;;;;;;;3.97;1.15;;;16.40;99.90;;;;;;5056304;28;20041;-81
2022/10/01 10:36:18;;;;;;;3.13;0.63;;;16.80;99.90;;;;;;5090305;28;20101;-80
2022/10/01 10:38:48;;;;;;;3.58;0.98;;;16.70;99.90;;;;;;5092624;28;20501;-80
2022/10/01 10:41:18;;;;;;;5.30;1.52;;;16.50;99.90;;;;;;5072634;28;20490;-81
2022/10/01 10:43:47;;;;;;;5.18;1.00;;;16.40;99.90;;;;;;5089165;28;20040;-80
2022/10/01 10:46:33;;;;;;;1.25;0.65;;;16.40;99.90;;;;;;5084569;28;20390;-80
2022/10/01 10:49:05;;;;;;;1.80;0.98;;;16.40;99.90;;;;;;5067420;28;20404;-80
2022/10/01 10:51:52;;;;;;;3.20;1.10;;;16.40;99.90;;;;;;5079463;28;20044;-81
2022/10/01 10:54:22;;;;;;;4.25;1.02;;;16.40;99.90;;;;;;5085660;28;20050;-81
2022/10/01 10:57:22;;;;;;;2.83;0.88;;;16.40;99.90;;;;;;5095819;28;20059;-81
2022/10/01 10:59:55;;;;;;;5.22;1.13;;;16.50;99.90;;;;;;5087804;28;20048;-81
2022/10/01 11:02:24;;;;;;;3.40;0.82;;;17.10;99.90;;;;;;5090705;28;20072;-81
2022/10/01 11:04:51;;;;;;;5.80;0.60;;;18.10;99.90;;;;;;5073900;28;20077;-81
2022/10/01 11:07:22;;;;;;;3.88;1.08;;;18.90;99.90;;;;;;5091029;28;20404;-82
2022/10/01 11:10:18;;;;;;;5.50;0.73;;;19.30;99.90;;;;;;5090266;28;20048;-82
2022/10/01 11:13:02;;;;;;;9.23;1.15;;;19.50;99.90;;;;;;5089490;28;20085;-83
2022/10/01 11:15:54;;;;;;;4.40;1.00;;;19.40;99.90;;;;;;5090839;28;20044;-82
2022/10/01 11:18:53;;;;;;;5.38;1.00;;;19.30;99.90;;;;;;5089279;28;20109;-82
2022/10/01 11:21:40;;;;;;;5.45;0.95;;;19.80;99.90;;;;;;5059918;28;20059;-82
2022/10/01 11:24:31;;;;;;;3.75;1.08;;;19.70;99.90;;;;;;5073367;28;20103;-83
2022/10/01 11:27:35;;;;;;;6.65;0.95;;;19.20;99.90;;;;;;5091003;28;20145;-82
2022/10/01 11:30:17;;;;;;;2.05;0.80;;;18.90;99.90;;;;;;5051847;28;20039;-82
2022/10/01 11:32:49;;;;;;;5.63;1.65;;;18.90;99.90;;;;;;5088088;28;20645;-83
2022/10/01 11:35:15;;;;;;;6.63;1.30;;;18.90;99.90;;;;;;5086698;28;20435;-83
2022/10/01 11:37:59;;;;;;;5.88;1.58;;;19.10;99.90;;;;;;5090025;28;20036;-83
2022/10/01 11:40:48;;;;;;;3.17;1.20;;;18.90;99.90;;;;;;5090498;28;20044;-82
2022/10/01 11:43:24;;;;;;;6.85;0.77;;;18.50;99.90;;;;;;5084989;28;20036;-82
2022/10/01 11:45:55;;;;;;;4.07;0.98;;;18.20;99.90;;;;;;5090699;28;20040;-82
2022/10/01 11:48:33;;;;;;;2.38;1.30;;;17.90;99.90;;;;;;5092677;28;20414;-81
2022/10/01 11:51:08;;;;;;;4.13;1.23;;;17.60;99.90;;;;;;5090845;28;20035;-81
2022/10/01 11:53:44;;;;;;;2.25;0.82;;;17.30;99.90;;;;;;5093985;28;20395;-82
2022/10/01 11:59:28;;;;;;;3.08;1.20;;;17.40;99.90;;;;;;5093641;28;20043;-82
2022/10/01 12:02:15;;;;;;;1.67;0.90;;;17.50;99.90;;;;;;5092817;28;20032;-82
2022/10/01 12:05:07;;;;;;;3.85;0.90;;;17.40;99.90;;;;;;5073424;28;20118;-81
2022/10/01 12:08:15;;;;;;;4.03;0.80;;;17.50;99.90;;;;;;5093895;28;20040;-81
2022/10/01 12:11:05;;;;;;;5.57;0.85;;;17.90;99.90;;;;;;5076113;28;20044;-82
2022/10/01 12:13:40;;;;;;;1.65;0.73;;;18.10;99.90;;;;;;5078551;28;20398;-83
2022/10/01 12:16:35;;;;;;;9.23;0.88;;;18.10;99.90;;;;;;5089725;28;20040;-83
2022/10/01 12:19:11;;;;;;;3.25;0.80;;;17.70;99.90;;;;;;5094837;28;20036;-83
2022/10/01 12:21:42;;;;;;;5.80;0.80;;;17.40;99.90;;;;;;5095288;28;20036;-83
2022/10/01 12:24:19;;;;;;;1.45;0.73;;;17.20;99.90;;;;;;5094737;28;20036;-83
2022/10/01 12:27:21;;;;;;;4.03;0.90;;;17.40;99.90;;;;;;5077867;28;20114;-83
2022/10/01 12:30:12;;;;;;;3.35;1.17;;;17.70;99.90;;;;;;5092853;28;20047;-81
2022/10/01 12:32:59;;;;;;;2.80;0.95;;;17.90;99.90;;;;;;5078619;28;20039;-81
2022/10/01 12:35:58;;;;;;;5.82;1.20;;;17.80;99.90;;;;;;5093378;28;20047;-81
2022/10/01 12:38:42;;;;;;;3.33;0.95;;;17.50;99.90;;;;;;5094554;28;20127;-81
2022/10/01 12:41:35;;;;;;;4.95;1.20;;;17.30;99.90;;;;;;5090404;28;20050;-81
2022/10/01 12:44:26;;;;;;;2.58;1.10;;;17.10;99.90;;;;;;5074467;28;20124;-81
2022/10/01 12:47:10;;;;;;;3.88;1.10;;;16.90;99.90;;;;;;5079393;28;20032;-83
2022/10/01 12:49:50;;;;;;;6.28;1.33;;;16.60;99.90;;;;;;5094273;28;20052;-83
2022/10/01 12:52:59;;;;;;;1.13;0.45;;;16.20;99.90;;;;;;5094754;28;20063;-83
2022/10/01 12:55:42;;;;;;;2.05;0.50;;;16.00;99.90;;;;;;5088928;28;20052;-83
2022/10/01 12:58:25;;;;;;;3.03;0.65;;;16.30;99.90;;;;;;5073548;28;20048;-83
2022/10/01 13:01:05;;;;;;;0.98;0.80;;;16.80;99.90;;;;;;5082935;28;20039;-83
2022/10/01 13:03:40;;;;;;;4.93;1.00;;;17.20;99.90;;;;;;5093991;28;20485;-83
2022/10/01 13:06:24;;;;;;;3.50;0.80;;;17.70;99.90;;;;;;5093885;28;20093;-83
2022/10/01 13:09:02;;;;;;;2.42;1.15;;;18.00;99.90;;;;;;5094084;28;20599;-83
2022/10/01 13:12:10;;;;;;;4.65;1.60;;;18.20;99.90;;;;;;5093133;28;20097;-83
2022/10/01 13:14:38;;;;;;;3.40;1.65;;;18.40;99.90;;;;;;5089171;28;20366;-83
2022/10/01 13:17:12;;;;;;;3.30;0.90;;;18.50;99.90;;;;;;5076541;28;20483;-83
2022/10/01 13:20:09;;;;;;;3.63;0.98;;;18.60;99.90;;;;;;5086709;28;20089;-81